KBAC Airport (Barnes County Muni) Information

FAA: BAC - ICAO: KBAC

KBAC Airport Location

State North Dakota
County Barnes
City Valley City
KBAC Airport is 1 miles northwest of Valley City, ND.
Latitude 46-56-28.3350N
Longitude 098-01-04.8490W
Elevation 1,401ft

KBAC Airport METARs

METAR KBAC 240815Z AUTO 35007G12KT 10SM FEW037 FEW065 BKN085 15/03 A2996 RMK AO2
Altimeter 29.96"
Temperature 15.0°C (59.0°F)
Wind 350° at 7KT with gusts to 12KT
Clouds few at 3,700ft few at 6,500ft broken at 8,500ft
Visibility 10.0mi
Time observed: 2021-09-24T08:15:00Z

KBAC Airport Details

Status Operational
Activation December 1938
Ownership Public
Usage Public
Chart TWIN CITIES
ATC on-site No
Beacon schedule sunset-sunrise
Beacon color clear green

KBAC Airport Contacts

Owner BARNES COUNTY AIRPORT AUTHORITY
Owner address P.O. BOX 2, VALLEY CITY, ND 58072
Owner phone 701-840-2029
Manager STEVEN MARTENS
Manager address PO BOX 252, STANLEY, ND 58784
Manager phone (701) 629-0044

KBAC Airport (Barnes County Muni) Radio Frequencies

KBAC (Airport) Radio Frequencies

UNICOM 122.8
Common traffic advisory frequency (CTAF) 122.8